Time;durP1;ratioP1;P1;durP2;ratioP2;P2;SDS_P1;SDS_P2;PMS_P1;PMS_P2;Temp;Humidity;BMP_temperature;BMP_pressure;BME280_temperature;BME280_humidity;BME280_pressure;Samples;Min_cycle;Max_cycle;Signal;HPM_P1;HPM_P2
2022/03/03 00:00:59;;;;;;;33.90;23.45;;;;;;;;;;5051895;28;20025;-59
2022/03/03 00:03:24;;;;;;;46.13;25.93;;;;;;;;;;5050042;28;20060;-58
2022/03/03 00:05:49;;;;;;;40.58;26.05;;;;;;;;;;5051891;28;20415;-59
2022/03/03 00:08:15;;;;;;;40.63;26.20;;;;;;;;;;5048595;28;20036;-60
2022/03/03 00:10:40;;;;;;;32.13;23.10;;;;;;;;;;5051562;28;20448;-60
2022/03/03 00:13:05;;;;;;;39.43;25.93;;;;;;;;;;5049500;28;20037;-59
2022/03/03 00:15:34;;;;;;;41.07;24.30;;;;;;;;;;5032356;28;20527;-59
2022/03/03 00:17:59;;;;;;;;;;;;;;;;;;5030201;28;20460;-60
2022/03/03 00:20:24;;;;;;;38.58;24.08;;;;;;;;;;5033026;28;20008;-60
2022/03/03 00:22:49;;;;;;;38.55;23.92;;;;;;;;;;5030160;28;20052;-60
2022/03/03 00:25:14;;;;;;;36.03;23.97;;;;;;;;;;5031299;28;20135;-60
2022/03/03 00:27:40;;;;;;;39.45;27.75;;;;;;;;;;5030183;28;20460;-60
2022/03/03 00:30:05;;;;;;;38.80;24.50;;;;;;;;;;5031585;28;20025;-60
2022/03/03 00:32:30;;;;;;;41.25;23.92;;;;;;;;;;5029949;28;20029;-60
2022/03/03 00:34:56;;;;;;;40.60;26.17;;;;;;;;;;5048845;28;20025;-60
2022/03/03 00:37:21;;;;;;;31.75;24.65;;;;;;;;;;5050068;28;20060;-60
2022/03/03 00:39:46;;;;;;;41.27;26.93;;;;;;;;;;5051239;28;20028;-60
2022/03/03 00:42:11;;;;;;;39.88;25.67;;;;;;;;;;5049714;28;20455;-60
2022/03/03 00:44:36;;;;;;;34.53;24.25;;;;;;;;;;5051356;28;20024;-60
2022/03/03 00:47:02;;;;;;;39.00;24.70;;;;;;;;;;5049466;28;20480;-60
2022/03/03 00:49:27;;;;;;;39.65;24.80;;;;;;;;;;5049363;28;20036;-60
2022/03/03 00:51:52;;;;;;;38.65;22.58;;;;;;;;;;5049721;28;20122;-60
2022/03/03 00:54:17;;;;;;;41.88;27.48;;;;;;;;;;5035671;28;20024;-60
2022/03/03 00:56:42;;;;;;;33.60;24.37;;;;;;;;;;5030117;28;20029;-60
2022/03/03 00:59:10;;;;;;;38.08;24.92;;;;;;;;;;5031173;28;20032;-60
2022/03/03 01:01:35;;;;;;;38.60;24.92;;;;;;;;;;5029263;28;20499;-60
2022/03/03 01:04:00;;;;;;;39.70;23.80;;;;;;;;;;5030926;28;20096;-60
2022/03/03 01:06:26;;;;;;;31.05;22.13;;;;;;;;;;5029806;28;20639;-60
2022/03/03 01:08:52;;;;;;;42.35;24.65;;;;;;;;;;5039677;28;20480;-60
2022/03/03 01:11:17;;;;;;;38.50;25.30;;;;;;;;;;5049329;28;20074;-60
2022/03/03 01:13:42;;;;;;;35.72;25.08;;;;;;;;;;5050487;28;20387;-60
2022/03/03 01:16:07;;;;;;;38.63;24.73;;;;;;;;;;5050811;28;20053;-60
2022/03/03 01:18:32;;;;;;;40.33;23.90;;;;;;;;;;5039470;28;20030;-60
2022/03/03 01:20:57;;;;;;;32.53;21.77;;;;;;;;;;5030773;28;20420;-60
2022/03/03 01:23:23;;;;;;;35.37;25.00;;;;;;;;;;5029373;28;20100;-60
2022/03/03 01:25:48;;;;;;;37.40;26.73;;;;;;;;;;5030914;28;20836;-60
2022/03/03 01:28:13;;;;;;;39.00;25.65;;;;;;;;;;5032320;28;20037;-60
2022/03/03 01:30:38;;;;;;;37.95;23.25;;;;;;;;;;5034957;28;20021;-60
2022/03/03 01:33:05;;;;;;;37.73;25.60;;;;;;;;;;5032729;28;20514;-60
2022/03/03 01:35:30;;;;;;;37.90;23.98;;;;;;;;;;5035186;28;20032;-60
2022/03/03 01:37:55;;;;;;;35.35;22.10;;;;;;;;;;5033202;28;20447;-60
2022/03/03 01:40:22;;;;;;;36.70;25.13;;;;;;;;;;5034481;28;20032;-60
2022/03/03 01:42:48;;;;;;;33.78;23.55;;;;;;;;;;5033302;28;20037;-60
2022/03/03 01:45:13;;;;;;;32.35;24.17;;;;;;;;;;5034477;28;20566;-60
2022/03/03 01:47:39;;;;;;;43.30;28.17;;;;;;;;;;5050597;28;20060;-59
2022/03/03 01:50:04;;;;;;;48.07;25.73;;;;;;;;;;5054576;28;20025;-59
2022/03/03 01:52:29;;;;;;;36.63;23.92;;;;;;;;;;5052767;28;20542;-59
2022/03/03 01:54:55;;;;;;;40.60;24.08;;;;;;;;;;5053894;28;20013;-59
2022/03/03 01:57:20;;;;;;;37.50;23.50;;;;;;;;;;5053060;28;20484;-59
2022/03/03 01:59:46;;;;;;;31.92;22.55;;;;;;;;;;5054171;28;20017;-59
2022/03/03 02:02:11;;;;;;;44.15;25.65;;;;;;;;;;5052297;28;20055;-59
2022/03/03 02:04:38;;;;;;;36.53;25.67;;;;;;;;;;5054499;28;20465;-59
2022/03/03 02:07:03;;;;;;;39.20;27.77;;;;;;;;;;5052253;28;20029;-59
2022/03/03 02:09:29;;;;;;;34.40;24.08;;;;;;;;;;5053771;28;20545;-59
2022/03/03 02:11:54;;;;;;;40.72;22.77;;;;;;;;;;5052542;28;20055;-59
2022/03/03 02:14:19;;;;;;;49.53;30.20;;;;;;;;;;5046973;28;20022;-59
2022/03/03 02:16:44;;;;;;;37.00;24.90;;;;;;;;;;5032411;28;20440;-59
2022/03/03 02:19:17;;;;;;;36.08;23.73;;;;;;;;;;5033836;28;20048;-59
2022/03/03 02:21:43;;;;;;;41.53;25.13;;;;;;;;;;5032837;28;20037;-59
2022/03/03 02:24:08;;;;;;;39.40;24.60;;;;;;;;;;5032304;28;20053;-59
2022/03/03 02:26:34;;;;;;;30.25;22.05;;;;;;;;;;5031461;28;20029;-59
2022/03/03 02:28:59;;;;;;;37.90;23.50;;;;;;;;;;5038174;28;20021;-59
2022/03/03 02:31:24;;;;;;;35.27;24.37;;;;;;;;;;5050749;28;20484;-59
2022/03/03 02:33:49;;;;;;;34.65;24.25;;;;;;;;;;5052701;28;20426;-59
2022/03/03 02:36:14;;;;;;;46.05;26.70;;;;;;;;;;5052357;28;20049;-59
2022/03/03 02:38:39;;;;;;;37.17;27.90;;;;;;;;;;5050249;28;20039;-59
2022/03/03 02:41:04;;;;;;;35.33;24.88;;;;;;;;;;5052312;28;20029;-59
2022/03/03 02:43:30;;;;;;;35.33;23.50;;;;;;;;;;5034168;28;20044;-59
2022/03/03 02:45:55;;;;;;;36.45;26.55;;;;;;;;;;5031886;28;20018;-59
2022/03/03 02:48:20;;;;;;;36.40;27.05;;;;;;;;;;5013327;28;20037;-59
2022/03/03 02:50:45;;;;;;;39.37;27.60;;;;;;;;;;5032377;28;20028;-59
2022/03/03 02:53:11;;;;;;;39.75;24.75;;;;;;;;;;5030288;28;20456;-59
2022/03/03 02:55:36;;;;;;;45.15;28.40;;;;;;;;;;5032373;28;20017;-59
2022/03/03 02:58:01;;;;;;;34.53;25.73;;;;;;;;;;5030287;28;20128;-59
2022/03/03 03:00:27;;;;;;;47.43;25.37;;;;;;;;;;5031977;28;20430;-60
2022/03/03 03:02:52;;;;;;;35.70;26.95;;;;;;;;;;5031863;28;20509;-59
2022/03/03 03:05:18;;;;;;;48.83;26.37;;;;;;;;;;5032189;28;20028;-59
2022/03/03 03:07:43;;;;;;;37.08;26.75;;;;;;;;;;5030420;28;20484;-59
2022/03/03 03:10:09;;;;;;;42.65;26.23;;;;;;;;;;5036628;28;20039;-60
2022/03/03 03:12:34;;;;;;;36.50;26.42;;;;;;;;;;5050673;28;20032;-59
2022/03/03 03:14:59;;;;;;;37.03;24.93;;;;;;;;;;5051518;28;20045;-60
2022/03/03 03:17:24;;;;;;;37.90;25.58;;;;;;;;;;5050425;28;20790;-59
2022/03/03 03:19:49;;;;;;;69.00;36.80;;;;;;;;;;5051831;28;20028;-59
2022/03/03 03:22:14;;;;;;;51.00;34.27;;;;;;;;;;5008544;28;1178915;-59
2022/03/03 03:24:40;;;;;;;45.25;32.53;;;;;;;;;;5052528;28;20383;-59
2022/03/03 03:27:05;;;;;;;52.40;32.27;;;;;;;;;;5051043;28;20095;-60
2022/03/03 03:29:30;;;;;;;49.57;32.97;;;;;;;;;;5052290;28;20023;-60
2022/03/03 03:31:55;;;;;;;37.38;28.05;;;;;;;;;;5050939;28;20447;-60
2022/03/03 03:34:20;;;;;;;53.37;31.53;;;;;;;;;;5052568;28;20047;-60
2022/03/03 03:36:45;;;;;;;54.42;32.45;;;;;;;;;;5050918;28;20530;-60
2022/03/03 03:39:11;;;;;;;36.80;28.02;;;;;;;;;;5038782;28;20432;-60
2022/03/03 03:41:36;;;;;;;42.73;29.77;;;;;;;;;;5031120;28;20056;-60
2022/03/03 03:44:01;;;;;;;38.65;26.08;;;;;;;;;;5032167;28;20032;-60
2022/03/03 03:46:26;;;;;;;39.20;26.83;;;;;;;;;;5030469;28;20087;-61
2022/03/03 03:48:51;;;;;;;47.67;30.40;;;;;;;;;;5032128;28;20090;-60
2022/03/03 03:51:16;;;;;;;47.00;28.40;;;;;;;;;;5030282;28;20044;-60
2022/03/03 03:53:41;;;;;;;52.80;36.05;;;;;;;;;;5031897;28;20109;-60
2022/03/03 03:56:07;;;;;;;40.97;27.97;;;;;;;;;;5031964;28;20017;-61
2022/03/03 03:58:33;;;;;;;42.30;30.90;;;;;;;;;;5030657;28;20561;-61
2022/03/03 04:00:58;;;;;;;44.20;29.98;;;;;;;;;;5032986;28;20033;-61
2022/03/03 04:03:23;;;;;;;39.23;26.30;;;;;;;;;;5030682;28;20038;-61
2022/03/03 04:05:48;;;;;;;44.55;27.17;;;;;;;;;;5033430;28;20434;-61
2022/03/03 04:08:14;;;;;;;45.78;30.00;;;;;;;;;;5049705;28;20033;-60
2022/03/03 04:10:39;;;;;;;47.17;29.92;;;;;;;;;;5052092;28;20021;-60
2022/03/03 04:13:04;;;;;;;39.78;27.20;;;;;;;;;;5050102;28;20053;-60
2022/03/03 04:15:30;;;;;;;42.38;26.98;;;;;;;;;;5051444;28;20021;-60
2022/03/03 04:17:55;;;;;;;39.42;28.13;;;;;;;;;;5050082;28;20029;-60
2022/03/03 04:20:22;;;;;;;57.63;31.52;;;;;;;;;;5051629;28;20095;-60
2022/03/03 04:22:48;;;;;;;42.67;28.20;;;;;;;;;;5049752;28;20052;-60
2022/03/03 04:25:13;;;;;;;42.55;26.70;;;;;;;;;;5051787;28;20020;-60
2022/03/03 04:27:38;;;;;;;38.53;28.60;;;;;;;;;;5050122;28;20086;-60
2022/03/03 04:30:05;;;;;;;36.28;27.23;;;;;;;;;;5050744;28;21015;-59
2022/03/03 04:32:30;;;;;;;40.17;26.70;;;;;;;;;;5049706;28;20630;-60
2022/03/03 04:34:55;;;;;;;44.53;27.27;;;;;;;;;;5040601;28;20026;-61
2022/03/03 04:37:21;;;;;;;46.67;27.02;;;;;;;;;;5029834;28;20370;-61
2022/03/03 04:39:46;;;;;;;35.00;25.03;;;;;;;;;;5031549;28;20026;-60
2022/03/03 04:42:11;;;;;;;41.97;26.95;;;;;;;;;;5029613;28;20455;-60
2022/03/03 04:44:36;;;;;;;35.42;26.05;;;;;;;;;;5031130;28;20021;-60
2022/03/03 04:47:01;;;;;;;38.60;27.58;;;;;;;;;;5029904;28;20041;-60
2022/03/03 04:49:27;;;;;;;39.08;26.02;;;;;;;;;;5032332;28;20053;-60
2022/03/03 04:51:52;;;;;;;38.53;26.10;;;;;;;;;;5029754;28;20484;-59
2022/03/03 04:54:18;;;;;;;48.90;31.65;;;;;;;;;;5030882;28;20020;-59
2022/03/03 04:56:44;;;;;;;36.95;23.85;;;;;;;;;;5030098;28;20083;-60
2022/03/03 04:59:09;;;;;;;50.83;30.85;;;;;;;;;;5030618;28;20030;-59
2022/03/03 05:01:34;;;;;;;36.10;24.13;;;;;;;;;;5029848;28;20104;-59
2022/03/03 05:03:59;;;;;;;41.47;27.05;;;;;;;;;;5032225;28;20029;-59
2022/03/03 05:06:24;;;;;;;39.30;25.30;;;;;;;;;;5029387;28;20026;-59
2022/03/03 05:08:50;;;;;;;37.40;24.90;;;;;;;;;;5031067;28;20764;-61
2022/03/03 05:11:15;;;;;;;38.78;26.52;;;;;;;;;;5048184;28;20025;-60
2022/03/03 05:13:40;;;;;;;36.28;28.40;;;;;;;;;;5047822;28;20095;-58
2022/03/03 05:16:05;;;;;;;38.80;24.40;;;;;;;;;;5050153;28;20155;-58
2022/03/03 05:18:30;;;;;;;34.93;26.90;;;;;;;;;;5048661;28;20067;-58
2022/03/03 05:20:56;;;;;;;40.70;26.57;;;;;;;;;;5048084;28;20450;-58
2022/03/03 05:23:21;;;;;;;43.27;28.90;;;;;;;;;;5047363;28;20490;-58
2022/03/03 05:25:46;;;;;;;42.13;26.08;;;;;;;;;;5050251;28;20446;-58
2022/03/03 05:28:11;;;;;;;39.30;28.10;;;;;;;;;;5048170;28;20140;-58
2022/03/03 05:30:37;;;;;;;42.90;26.95;;;;;;;;;;5048565;28;20074;-58
2022/03/03 05:33:03;;;;;;;44.17;29.05;;;;;;;;;;5047122;28;20040;-58
2022/03/03 05:35:28;;;;;;;40.27;26.63;;;;;;;;;;5048236;28;20010;-58
2022/03/03 05:37:53;;;;;;;37.53;24.57;;;;;;;;;;5045778;28;20467;-58
2022/03/03 05:40:18;;;;;;;40.10;25.08;;;;;;;;;;5049859;28;20024;-58
2022/03/03 05:42:44;;;;;;;40.50;29.02;;;;;;;;;;5046827;28;20061;-58
2022/03/03 05:45:09;;;;;;;48.40;28.92;;;;;;;;;;5046022;28;20020;-58
2022/03/03 05:47:34;;;;;;;37.40;26.17;;;;;;;;;;5052973;28;20403;-58
2022/03/03 05:50:00;;;;;;;33.23;26.67;;;;;;;;;;5068711;28;20052;-59
2022/03/03 05:52:25;;;;;;;33.33;24.20;;;;;;;;;;5068723;28;20607;-58
2022/03/03 05:54:50;;;;;;;41.42;26.85;;;;;;;;;;5069542;28;20074;-58
2022/03/03 05:57:26;;;;;;;37.90;25.37;;;;;;;;;;5069065;28;20055;-58
2022/03/03 05:59:51;;;;;;;39.65;27.50;;;;;;;;;;5070715;28;20431;-58
2022/03/03 06:02:19;;;;;;;39.53;25.70;;;;;;;;;;5067374;28;20377;-58
2022/03/03 06:04:46;;;;;;;40.92;27.88;;;;;;;;;;5068396;28;20020;-58
2022/03/03 06:07:12;;;;;;;36.20;25.45;;;;;;;;;;5068434;28;20047;-58
2022/03/03 06:09:37;;;;;;;36.10;26.35;;;;;;;;;;5070449;28;20025;-58
2022/03/03 06:12:10;;;;;;;39.20;26.65;;;;;;;;;;5068852;28;20029;-58
2022/03/03 06:14:53;;;;;;;39.13;26.58;;;;;;;;;;5073511;28;20043;-58
2022/03/03 06:17:19;;;;;;;39.28;25.05;;;;;;;;;;5072450;28;20025;-58
2022/03/03 06:19:46;;;;;;;41.38;26.35;;;;;;;;;;5073748;28;20111;-58
2022/03/03 06:22:11;;;;;;;38.97;24.92;;;;;;;;;;5072202;28;20111;-57
2022/03/03 06:24:36;;;;;;;34.77;24.97;;;;;;;;;;5073865;28;20103;-58
2022/03/03 06:27:02;;;;;;;45.33;27.52;;;;;;;;;;5071998;28;20459;-58
2022/03/03 06:29:27;;;;;;;35.60;24.63;;;;;;;;;;5073750;28;20047;-58
2022/03/03 06:31:53;;;;;;;39.33;25.35;;;;;;;;;;5072243;28;20033;-58
2022/03/03 06:34:20;;;;;;;36.47;24.73;;;;;;;;;;5073635;28;20021;-58
2022/03/03 06:36:45;;;;;;;40.95;25.63;;;;;;;;;;5072286;28;20025;-58
2022/03/03 06:39:10;;;;;;;38.87;23.87;;;;;;;;;;5073512;28;20024;-58
2022/03/03 06:41:35;;;;;;;37.25;26.60;;;;;;;;;;5072232;28;20410;-58
2022/03/03 06:44:01;;;;;;;35.25;24.95;;;;;;;;;;5073008;28;20016;-58
2022/03/03 06:46:26;;;;;;;34.15;22.33;;;;;;;;;;5072363;28;20095;-58
2022/03/03 06:48:51;;;;;;;34.97;22.77;;;;;;;;;;5073771;28;20016;-58
2022/03/03 06:51:17;;;;;;;31.42;23.55;;;;;;;;;;5072931;28;20012;-58
2022/03/03 06:53:43;;;;;;;34.50;25.73;;;;;;;;;;5071958;28;20131;-58
2022/03/03 06:56:09;;;;;;;39.63;26.60;;;;;;;;;;5073255;28;20020;-58
2022/03/03 06:58:35;;;;;;;35.80;25.05;;;;;;;;;;5071357;28;20031;-58
2022/03/03 07:01:07;;;;;;;45.88;28.02;;;;;;;;;;5073345;28;20095;-58
2022/03/03 07:03:33;;;;;;;33.80;26.08;;;;;;;;;;5071722;28;20036;-58
2022/03/03 07:05:58;;;;;;;42.50;26.67;;;;;;;;;;5072889;28;20095;-59
2022/03/03 07:08:23;;;;;;;37.83;24.30;;;;;;;;;;5071682;28;20090;-58
2022/03/03 07:10:48;;;;;;;32.97;23.37;;;;;;;;;;5073134;28;20128;-58
2022/03/03 07:13:19;;;;;;;31.15;23.50;;;;;;;;;;5070822;28;20651;-58
2022/03/03 07:15:46;;;;;;;38.60;24.33;;;;;;;;;;5072655;28;20027;-58
2022/03/03 07:18:14;;;;;;;34.13;23.40;;;;;;;;;;5071265;28;20029;-58
2022/03/03 07:20:39;;;;;;;32.78;23.15;;;;;;;;;;5072543;28;20029;-58
2022/03/03 07:23:12;;;;;;;31.83;23.80;;;;;;;;;;5070919;28;20059;-58
2022/03/03 07:25:41;;;;;;;38.78;23.00;;;;;;;;;;5071667;28;20418;-58
2022/03/03 07:28:08;;;;;;;33.75;23.33;;;;;;;;;;5070694;28;20115;-58
2022/03/03 07:30:35;;;;;;;33.40;23.73;;;;;;;;;;5072883;28;20024;-58
2022/03/03 07:33:06;;;;;;;40.22;24.05;;;;;;;;;;5070967;28;20082;-58
2022/03/03 07:35:33;;;;;;;31.23;21.70;;;;;;;;;;5072232;28;20021;-58
2022/03/03 07:38:00;;;;;;;33.17;23.48;;;;;;;;;;5070824;28;20032;-58
2022/03/03 07:40:29;;;;;;;32.65;21.60;;;;;;;;;;5072624;28;20048;-58
2022/03/03 07:42:55;;;;;;;34.50;22.48;;;;;;;;;;5070536;28;20066;-59
2022/03/03 07:45:20;;;;;;;34.95;22.52;;;;;;;;;;5072604;28;20036;-58
2022/03/03 07:47:48;;;;;;;26.98;23.02;;;;;;;;;;5070763;28;20073;-59
2022/03/03 07:50:13;;;;;;;31.23;21.15;;;;;;;;;;5071684;28;20485;-60
2022/03/03 07:52:38;;;;;;;31.05;21.20;;;;;;;;;;5070798;28;20029;-58
2022/03/03 07:55:03;;;;;;;30.63;20.27;;;;;;;;;;5071952;28;20064;-58
2022/03/03 07:57:34;;;;;;;31.70;21.45;;;;;;;;;;5070445;28;20458;-58
2022/03/03 08:00:03;;;;;;;29.40;19.92;;;;;;;;;;5071992;28;20029;-58
2022/03/03 08:02:29;;;;;;;26.73;20.73;;;;;;;;;;5070715;28;20089;-58
2022/03/03 08:04:55;;;;;;;28.75;19.75;;;;;;;;;;5071418;28;20016;-58
2022/03/03 08:07:20;;;;;;;29.48;19.30;;;;;;;;;;5070531;28;20159;-58
2022/03/03 08:09:48;;;;;;;24.85;19.42;;;;;;;;;;5071695;28;20525;-58
2022/03/03 08:12:14;;;;;;;25.83;18.70;;;;;;;;;;5069879;28;20982;-58
2022/03/03 08:14:40;;;;;;;27.50;18.02;;;;;;;;;;5071844;28;20115;-58
2022/03/03 08:17:05;;;;;;;25.88;17.20;;;;;;;;;;5069994;28;20064;-58
2022/03/03 08:19:30;;;;;;;28.13;19.60;;;;;;;;;;5071619;28;20372;-58
2022/03/03 08:21:55;;;;;;;24.02;19.50;;;;;;;;;;5069973;28;20033;-58
2022/03/03 08:24:21;;;;;;;28.58;19.75;;;;;;;;;;5071481;28;20052;-58
2022/03/03 08:26:46;;;;;;;29.30;17.85;;;;;;;;;;5069873;28;20032;-58
2022/03/03 08:29:11;;;;;;;21.55;17.45;;;;;;;;;;5071415;28;20027;-58
2022/03/03 08:31:41;;;;;;;23.30;18.17;;;;;;;;;;5070155;28;20035;-58
2022/03/03 08:34:14;;;;;;;22.85;17.27;;;;;;;;;;5070761;28;20020;-58
2022/03/03 08:36:44;;;;;;;25.25;16.48;;;;;;;;;;5069737;28;20039;-58
2022/03/03 08:39:10;;;;;;;19.15;16.13;;;;;;;;;;5071329;28;20438;-58
2022/03/03 08:41:36;;;;;;;17.40;15.15;;;;;;;;;;5069619;28;20020;-59
2022/03/03 08:44:02;;;;;;;21.85;15.82;;;;;;;;;;5071046;28;20035;-58
2022/03/03 08:46:30;;;;;;;19.30;16.15;;;;;;;;;;5069952;28;20016;-58
2022/03/03 08:48:56;;;;;;;21.50;16.25;;;;;;;;;;5070630;28;20021;-58
2022/03/03 08:51:21;;;;;;;21.75;17.60;;;;;;;;;;5070033;28;20020;-58
2022/03/03 08:53:47;;;;;;;23.75;17.80;;;;;;;;;;5071144;28;20100;-58
2022/03/03 08:56:12;;;;;;;26.67;18.90;;;;;;;;;;5070570;28;20028;-59
2022/03/03 08:58:37;;;;;;;20.13;15.00;;;;;;;;;;5069578;28;20445;-58
2022/03/03 09:01:02;;;;;;;22.67;16.33;;;;;;;;;;5071137;28;20423;-59
2022/03/03 09:03:28;;;;;;;20.75;17.15;;;;;;;;;;5069338;28;20075;-58
2022/03/03 09:05:54;;;;;;;24.48;18.52;;;;;;;;;;5071265;28;20109;-58
2022/03/03 09:08:20;;;;;;;19.38;15.50;;;;;;;;;;5069618;28;20029;-58
2022/03/03 09:10:45;;;;;;;18.63;16.23;;;;;;;;;;5070547;28;20355;-58
2022/03/03 09:13:10;;;;;;;22.75;19.20;;;;;;;;;;5069323;28;20456;-58
2022/03/03 09:15:36;;;;;;;21.93;17.47;;;;;;;;;;5070924;28;20661;-58
2022/03/03 09:18:01;;;;;;;21.20;17.55;;;;;;;;;;5068937;28;20032;-58
2022/03/03 09:20:27;;;;;;;21.80;18.13;;;;;;;;;;5070861;28;20013;-58
2022/03/03 09:22:52;;;;;;;23.55;18.10;;;;;;;;;;5069472;28;20080;-58
2022/03/03 09:25:17;;;;;;;22.30;19.75;;;;;;;;;;5070306;28;20107;-58
2022/03/03 09:27:43;;;;;;;21.70;16.47;;;;;;;;;;5069650;28;20089;-58
2022/03/03 09:30:09;;;;;;;21.60;17.60;;;;;;;;;;5070836;28;20454;-58
2022/03/03 09:32:34;;;;;;;20.25;17.10;;;;;;;;;;5069126;28;20024;-58
2022/03/03 09:35:00;;;;;;;21.45;16.70;;;;;;;;;;5070658;28;20479;-59
2022/03/03 09:37:25;;;;;;;19.23;16.98;;;;;;;;;;5069310;28;20542;-58
2022/03/03 09:39:50;;;;;;;22.67;18.10;;;;;;;;;;5070521;28;20021;-58
2022/03/03 09:42:16;;;;;;;22.77;18.15;;;;;;;;;;5069023;28;20048;-58
2022/03/03 09:44:42;;;;;;;23.90;19.15;;;;;;;;;;5071027;28;20055;-58
2022/03/03 09:47:07;;;;;;;27.00;20.05;;;;;;;;;;5068635;28;20033;-58
2022/03/03 09:49:32;;;;;;;20.07;17.43;;;;;;;;;;5074529;28;20024;-58
2022/03/03 09:51:57;;;;;;;22.73;19.80;;;;;;;;;;5073115;28;20451;-58
2022/03/03 09:54:23;;;;;;;20.00;17.60;;;;;;;;;;5074005;28;20016;-58
2022/03/03 09:56:48;;;;;;;26.55;19.58;;;;;;;;;;5073224;28;20036;-58
2022/03/03 09:59:13;;;;;;;21.30;18.97;;;;;;;;;;5074064;28;20099;-58
2022/03/03 10:01:39;;;;;;;22.92;19.17;;;;;;;;;;5072818;28;20032;-58
2022/03/03 10:04:14;;;;;;;20.77;18.58;;;;;;;;;;5074053;28;20025;-58
2022/03/03 10:06:40;;;;;;;26.42;18.60;;;;;;;;;;5073007;28;20033;-59
2022/03/03 10:09:05;;;;;;;21.35;19.02;;;;;;;;;;5073873;28;20039;-58
2022/03/03 10:11:31;;;;;;;19.98;16.83;;;;;;;;;;5072621;28;20025;-59
2022/03/03 10:13:56;;;;;;;21.58;17.42;;;;;;;;;;5073763;28;20035;-59
2022/03/03 10:16:26;;;;;;;21.30;17.57;;;;;;;;;;5072707;28;20042;-59
2022/03/03 10:18:57;;;;;;;20.15;15.32;;;;;;;;;;5074267;28;20423;-59
2022/03/03 10:21:25;;;;;;;19.35;14.27;;;;;;;;;;5072805;28;20019;-58
2022/03/03 10:23:50;;;;;;;18.67;16.15;;;;;;;;;;5073611;28;20040;-59
2022/03/03 10:26:15;;;;;;;21.23;17.83;;;;;;;;;;5074082;28;20364;-58
2022/03/03 10:28:46;;;;;;;20.47;16.90;;;;;;;;;;5072527;28;20109;-58
2022/03/03 10:31:18;;;;;;;20.15;16.70;;;;;;;;;;5073425;28;20996;-59
2022/03/03 10:33:47;;;;;;;21.08;15.80;;;;;;;;;;5072734;28;20036;-58
2022/03/03 10:36:14;;;;;;;20.08;14.98;;;;;;;;;;5070079;28;20021;-58
2022/03/03 10:38:44;;;;;;;27.05;16.77;;;;;;;;;;5046731;28;20400;-58
2022/03/03 10:41:25;;;;;;;20.30;16.10;;;;;;;;;;5052683;28;20053;-59
2022/03/03 10:43:50;;;;;;;16.75;14.95;;;;;;;;;;5064985;28;20043;-58
2022/03/03 10:46:15;;;;;;;27.52;16.30;;;;;;;;;;5072793;28;20020;-58
2022/03/03 10:48:40;;;;;;;21.27;16.77;;;;;;;;;;5072046;28;20068;-58
2022/03/03 10:51:06;;;;;;;17.40;14.83;;;;;;;;;;5073036;28;20383;-58
2022/03/03 10:53:33;;;;;;;18.05;15.38;;;;;;;;;;5071358;28;20102;-58
2022/03/03 10:55:59;;;;;;;18.58;16.63;;;;;;;;;;5059325;28;20013;-59
2022/03/03 10:58:42;;;;;;;18.95;15.57;;;;;;;;;;5051098;28;20103;-59
2022/03/03 11:01:08;;;;;;;16.60;14.93;;;;;;;;;;5052752;28;20044;-58
2022/03/03 11:03:33;;;;;;;16.85;15.07;;;;;;;;;;5051747;28;20037;-58
2022/03/03 11:05:58;;;;;;;18.08;16.15;;;;;;;;;;5053025;28;20025;-58
2022/03/03 11:08:24;;;;;;;18.40;13.40;;;;;;;;;;5051016;28;20044;-59
2022/03/03 11:10:50;;;;;;;19.48;16.38;;;;;;;;;;5052932;28;20373;-58
2022/03/03 11:13:15;;;;;;;17.35;15.07;;;;;;;;;;5050329;28;20033;-58
2022/03/03 11:15:41;;;;;;;15.27;13.67;;;;;;;;;;5044633;28;20468;-58
2022/03/03 11:18:06;;;;;;;17.50;14.20;;;;;;;;;;5036154;28;20037;-59
2022/03/03 11:20:31;;;;;;;17.87;13.73;;;;;;;;;;5033015;28;20071;-58
2022/03/03 11:22:56;;;;;;;15.73;13.93;;;;;;;;;;5031094;28;20428;-59
2022/03/03 11:25:29;;;;;;;20.33;13.70;;;;;;;;;;5032455;28;20471;-59
2022/03/03 11:28:04;;;;;;;13.95;12.55;;;;;;;;;;5043107;28;20471;-58
2022/03/03 11:30:30;;;;;;;16.17;13.93;;;;;;;;;;5041434;28;20078;-58
2022/03/03 11:33:14;;;;;;;19.35;12.50;;;;;;;;;;5050036;28;20037;-58
2022/03/03 11:35:53;;;;;;;17.23;14.82;;;;;;;;;;5059621;28;20044;-58
2022/03/03 11:38:18;;;;;;;14.70;13.23;;;;;;;;;;5050145;28;20140;-58
2022/03/03 11:40:51;;;;;;;18.50;13.85;;;;;;;;;;5051458;28;20055;-58
2022/03/03 11:43:16;;;;;;;24.58;15.63;;;;;;;;;;5048678;28;20052;-58
2022/03/03 11:45:48;;;;;;;17.20;13.07;;;;;;;;;;5052089;28;20021;-58
2022/03/03 11:48:17;;;;;;;14.43;12.93;;;;;;;;;;5063055;28;20451;-58
2022/03/03 11:50:43;;;;;;;18.10;12.80;;;;;;;;;;5050001;28;20405;-58
2022/03/03 11:53:08;;;;;;;16.55;12.80;;;;;;;;;;5047046;28;20067;-58
2022/03/03 11:55:35;;;;;;;18.55;15.02;;;;;;;;;;5054179;28;20057;-58
2022/03/03 11:58:04;;;;;;;16.52;14.05;;;;;;;;;;5041928;28;20037;-59
2022/03/03 12:00:31;;;;;;;15.00;12.43;;;;;;;;;;5051446;28;20028;-58
2022/03/03 12:03:00;;;;;;;19.25;15.68;;;;;;;;;;5042031;28;20097;-58
2022/03/03 12:05:33;;;;;;;17.15;14.55;;;;;;;;;;5048632;28;20016;-58
2022/03/03 12:07:59;;;;;;;16.20;14.35;;;;;;;;;;5052613;28;20032;-58
2022/03/03 12:10:24;;;;;;;15.05;13.45;;;;;;;;;;5053951;28;20048;-58
2022/03/03 12:12:49;;;;;;;18.17;14.73;;;;;;;;;;5030032;28;20073;-58
2022/03/03 12:15:15;;;;;;;16.42;14.20;;;;;;;;;;5033658;28;20017;-58
2022/03/03 12:17:42;;;;;;;16.50;14.90;;;;;;;;;;5030300;28;20037;-58
2022/03/03 12:20:27;;;;;;;18.08;15.65;;;;;;;;;;5042638;28;20098;-58
2022/03/03 12:23:08;;;;;;;16.10;11.23;;;;;;;;;;5042145;28;20102;-58
2022/03/03 12:25:51;;;;;;;14.45;10.95;;;;;;;;;;5040321;28;20366;-58
2022/03/03 12:28:20;;;;;;;21.50;14.00;;;;;;;;;;5029942;28;20049;-58
2022/03/03 12:30:46;;;;;;;19.13;13.70;;;;;;;;;;5031528;28;20017;-58
2022/03/03 12:33:25;;;;;;;18.98;13.88;;;;;;;;;;5032371;28;20039;-58
2022/03/03 12:35:51;;;;;;;12.02;10.50;;;;;;;;;;5049427;28;20036;-58
2022/03/03 12:38:16;;;;;;;15.10;12.55;;;;;;;;;;5048287;28;20117;-58
2022/03/03 12:40:42;;;;;;;13.90;12.10;;;;;;;;;;5056787;28;20029;-58
2022/03/03 12:43:12;;;;;;;16.20;13.43;;;;;;;;;;5045270;28;20040;-58
2022/03/03 12:45:38;;;;;;;15.75;14.05;;;;;;;;;;5045108;28;20091;-58
2022/03/03 12:48:03;;;;;;;15.80;13.65;;;;;;;;;;5029820;28;20037;-57
2022/03/03 12:50:29;;;;;;;13.32;10.65;;;;;;;;;;5044477;28;20064;-57
2022/03/03 12:53:11;;;;;;;15.40;12.55;;;;;;;;;;5031968;28;20033;-58
2022/03/03 12:55:44;;;;;;;14.95;13.23;;;;;;;;;;5048392;28;20027;-58
2022/03/03 12:58:09;;;;;;;17.60;13.43;;;;;;;;;;5037037;28;20057;-57
2022/03/03 13:00:37;;;;;;;17.60;11.68;;;;;;;;;;5050777;28;20052;-57
2022/03/03 13:03:03;;;;;;;10.40;9.40;;;;;;;;;;5049457;28;20056;-58
2022/03/03 13:05:38;;;;;;;10.90;9.77;;;;;;;;;;5051021;28;20025;-57
2022/03/03 13:08:04;;;;;;;11.10;10.00;;;;;;;;;;5038085;28;20041;-57
2022/03/03 13:10:31;;;;;;;12.40;11.13;;;;;;;;;;5050943;28;20017;-57
2022/03/03 13:12:57;;;;;;;16.35;10.95;;;;;;;;;;5049362;28;20034;-57
2022/03/03 13:15:28;;;;;;;15.98;11.52;;;;;;;;;;5050460;28;20017;-57
2022/03/03 13:18:01;;;;;;;13.55;11.30;;;;;;;;;;5042545;28;20044;-58
2022/03/03 13:20:30;;;;;;;14.52;11.63;;;;;;;;;;5033692;28;20029;-58
2022/03/03 13:22:55;;;;;;;15.15;13.32;;;;;;;;;;5049230;28;20140;-58
2022/03/03 13:25:20;;;;;;;15.10;10.60;;;;;;;;;;5044481;28;20148;-58
2022/03/03 13:27:46;;;;;;;18.77;13.65;;;;;;;;;;5052991;28;20044;-58
2022/03/03 13:30:12;;;;;;;17.55;13.20;;;;;;;;;;5053363;28;20086;-58
2022/03/03 13:32:47;;;;;;;16.17;13.38;;;;;;;;;;5053537;28;20090;-57
2022/03/03 13:35:13;;;;;;;10.00;9.00;;;;;;;;;;5054532;28;20043;-58
2022/03/03 13:37:38;;;;;;;11.95;9.90;;;;;;;;;;5051004;28;20044;-58
2022/03/03 13:40:17;;;;;;;11.60;9.27;;;;;;;;;;5054734;28;20024;-58
2022/03/03 13:42:42;;;;;;;9.75;8.23;;;;;;;;;;5053480;28;20071;-58
2022/03/03 13:45:07;;;;;;;13.50;9.20;;;;;;;;;;5034816;28;20025;-58
2022/03/03 13:47:41;;;;;;;10.85;8.98;;;;;;;;;;5033540;28;20439;-57
2022/03/03 13:50:16;;;;;;;13.07;11.63;;;;;;;;;;5034646;28;20110;-58
2022/03/03 13:52:41;;;;;;;15.02;8.75;;;;;;;;;;5032879;28;20176;-57
2022/03/03 13:55:16;;;;;;;11.68;10.07;;;;;;;;;;5034408;28;20093;-58
2022/03/03 13:57:41;;;;;;;10.88;9.20;;;;;;;;;;5033173;28;20070;-58
2022/03/03 14:00:26;;;;;;;11.27;8.93;;;;;;;;;;5043866;28;20492;-57
2022/03/03 14:02:58;;;;;;;9.82;8.88;;;;;;;;;;5053109;28;20060;-58
2022/03/03 14:05:30;;;;;;;12.23;9.23;;;;;;;;;;5038074;28;20451;-58
2022/03/03 14:07:55;;;;;;;13.18;9.32;;;;;;;;;;5046501;28;20064;-58
2022/03/03 14:10:20;;;;;;;15.27;8.93;;;;;;;;;;5059917;28;20476;-58
2022/03/03 14:13:05;;;;;;;12.33;9.60;;;;;;;;;;5062890;28;20029;-57
2022/03/03 14:15:30;;;;;;;11.95;9.40;;;;;;;;;;5034064;28;20018;-56